Map

Track Data

SID SEASON NUMBER BASIN SUBBASIN NAME ISO_TIME NATURE LAT LON WMO_WIND WMO_PRES WMO_AGENCY TRACK_TYPE DIST2LAND LANDFALL IFLAG USA_AGENCY USA_ATCF_ID USA_LAT USA_LON USA_RECORD USA_STATUS USA_WIND USA_PRES USA_SSHS USA_R34_NE USA_R34_SE USA_R34_SW USA_R34_NW USA_R50_NE USA_R50_SE USA_R50_SW USA_R50_NW USA_R64_NE USA_R64_SE USA_R64_SW USA_R64_NW USA_POCI USA_ROCI USA_RMW USA_EYE TOKYO_LAT TOKYO_LON TOKYO_GRADE TOKYO_WIND TOKYO_PRES TOKYO_R50_DIR TOKYO_R50_LONG TOKYO_R50_SHORT TOKYO_R30_DIR TOKYO_R30_LONG TOKYO_R30_SHORT TOKYO_LAND CMA_LAT CMA_LON CMA_CAT CMA_WIND CMA_PRES HKO_LAT HKO_LON HKO_CAT HKO_WIND HKO_PRES NEWDELHI_LAT NEWDELHI_LON NEWDELHI_GRADE NEWDELHI_WIND NEWDELHI_PRES NEWDELHI_CI NEWDELHI_DP NEWDELHI_POCI REUNION_LAT REUNION_LON REUNION_TYPE REUNION_WIND REUNION_PRES REUNION_TNUM REUNION_CI REUNION_RMW REUNION_R34_NE REUNION_R34_SE REUNION_R34_SW REUNION_R34_NW REUNION_R50_NE REUNION_R50_SE REUNION_R50_SW REUNION_R50_NW REUNION_R64_NE REUNION_R64_SE REUNION_R64_SW REUNION_R64_NW BOM_LAT BOM_LON BOM_TYPE BOM_WIND BOM_PRES BOM_TNUM BOM_CI BOM_RMW BOM_R34_NE BOM_R34_SE BOM_R34_SW BOM_R34_NW BOM_R50_NE BOM_R50_SE BOM_R50_SW BOM_R50_NW BOM_R64_NE BOM_R64_SE BOM_R64_SW BOM_R64_NW BOM_ROCI BOM_POCI BOM_EYE BOM_POS_METHOD BOM_PRES_METHOD NADI_LAT NADI_LON NADI_CAT NADI_WIND NADI_PRES WELLINGTON_LAT WELLINGTON_LON WELLINGTON_WIND WELLINGTON_PRES DS824_LAT DS824_LON DS824_STAGE DS824_WIND DS824_PRES TD9636_LAT TD9636_LON TD9636_STAGE TD9636_WIND TD9636_PRES TD9635_LAT TD9635_LON TD9635_WIND TD9635_PRES TD9635_ROCI NEUMANN_LAT NEUMANN_LON NEUMANN_CLASS NEUMANN_WIND NEUMANN_PRES MLC_LAT MLC_LON MLC_CLASS MLC_WIND MLC_PRES USA_GUST BOM_GUST BOM_GUST_PER REUNION_GUST REUNION_GUST_PER USA_SEAHGT USA_SEARAD_NE USA_SEARAD_SE USA_SEARAD_SW USA_SEARAD_NW STORM_SPEED STORM_DIR
1989010S15063 1989 5 SI MM DONA 1989-01-10 06:00:00 TS -15.0000 62.6333 24 1000 reunion main 771 749 _____O____O_O_ -1 -15.0000 62.7000 2 24 1000 2.00000 2.00000 -15.0000 62.5000 1 25 -15.0000 62.7000 TC 30 1000 6 248
1989010S15063 1989 5 SI MM DONA 1989-01-10 09:00:00 TS -15.1030 62.3634 main 749 719 _____P____P_P_ -1 -15.0951 62.3826 2 26 998 -15.1188 62.3251 1 25 -15.0951 62.3826 TC 32 998 5 247
1989010S15063 1989 5 SI MM DONA 1989-01-10 12:00:00 TS -15.2134 62.1167 28 997 reunion main 719 697 _____O____P_O_ -1 -15.2000 62.1000 2 28 997 2.50000 2.50000 -15.2401 62.1501 1 25 -15.2000 62.1000 TC 35 997 5 241
1989010S15063 1989 5 SI MM DONA 1989-01-10 15:00:00 TS -15.3404 61.9100 main 697 666 _____P____P_P_ -1 -15.3275 61.8774 2 28 997 -15.3663 61.9751 1 25 -15.3275 61.8774 TC 35 997 5 232
1989010S15063 1989 5 SI MM DONA 1989-01-10 18:00:00 TS -15.5000 61.7333 28 997 reunion main 666 642 _____O____O_O_ -1 -15.5000 61.7000 2 28 997 2.50000 2.50000 -15.5000 61.8000 1 25 -15.5000 61.7000 TC 35 997 5 222
1989010S15063 1989 5 SI MM DONA 1989-01-10 21:00:00 TS -15.7058 61.5655 main 642 611 _____P____P_P_ -1 -15.7350 61.5350 2 28 997 -15.6475 61.6265 1 26 -15.7350 61.5350 TC 35 997 5 214
1989010S15063 1989 5 SI MM DONA 1989-01-11 00:00:00 TS -15.9434 61.4208 28 997 reunion main 611 578 _____O____P_I_ -1 -16.0000 61.4000 2 28 997 2.50000 2.50000 -15.8301 61.4624 1 27 -16.0000 61.4000 TC 35 997 5 208
1989010S15063 1989 5 SI MM DONA 1989-01-11 03:00:00 TS -16.1808 61.3007 main 578 554 _____P____P_P_ -1 -16.2350 61.2924 2 28 997 -16.0726 61.3172 1 28 -16.2350 61.2924 TC 35 997 6 202
1989010S15063 1989 5 SI MM DONA 1989-01-11 06:00:00 TS -16.4667 61.2000 28 997 reunion main 546 514 _____O____O_O_ -1 -16.5000 61.2000 2 28 997 2.50000 2.50000 -16.4000 61.2000 1 30 -16.5000 61.2000 TC 35 997 7 197
1989010S15063 1989 5 SI MM DONA 1989-01-11 09:00:00 TS -16.8267 61.0984 main 514 475 _____P____P_P_ -1 -16.8125 61.0851 2 28 997 -16.8549 61.1251 1 30 -16.8125 61.0851 TC 35 997 8 192
1989010S15063 1989 5 SI MM DONA 1989-01-11 12:00:00 TS -17.2633 61.0257 28 997 reunion main 467 438 _____O____P_O_ -1 -17.2000 61.0000 2 28 997 2.50000 2.50000 -17.3900 61.0772 1 30 -17.2000 61.0000 TC 35 997 9 185
1989010S15063 1989 5 SI MM DONA 1989-01-11 15:00:00 TS -17.7650 61.0035 main 432 400 _____P____P_P_ -1 -17.6700 60.9849 2 28 997 -17.9550 61.0407 1 30 -17.6700 60.9849 TC 35 997 10 181
1989010S15063 1989 5 SI MM DONA 1989-01-11 18:00:00 TS -18.3000 61.0000 28 997 reunion main 400 374 _____O____O_O_ -1 -18.2000 61.0000 2 28 997 2.50000 2.50000 -18.5000 61.0000 1 30 -18.2000 61.0000 TC 35 997 11 181
1989010S15063 1989 5 SI MM DONA 1989-01-11 21:00:00 TS -18.8256 60.9909 main 374 352 _____P____P_P_ -1 -18.7575 61.0223 2 28 997 -18.9618 60.9282 1 30 -18.7575 61.0223 TC 35 997 10 182
1989010S15063 1989 5 SI MM DONA 1989-01-12 00:00:00 TS -19.3317 60.9500 28 997 reunion main 352 320 _____O____P_O_ -1 -19.3000 61.0000 2 28 997 2.50000 2.50000 -19.3950 60.8501 1 30 -19.3000 61.0000 TC 35 997 10 191
1989010S15063 1989 5 SI MM DONA 1989-01-12 03:00:00 TS -19.7735 60.7944 main 318 302 _____P____P_P_ -1 -19.7575 60.8057 2 28 997 -19.8056 60.7719 1 30 -19.7575 60.8057 TC 35 997 9 195
1989010S15063 1989 5 SI MM DONA 1989-01-12 06:00:00 TS -20.2000 60.7000 28 997 reunion main 302 302 _____O____O_O_ -1 -20.2000 60.7000 2 28 997 2.50000 2.50000 -20.2000 60.7000 1 30 -20.2000 60.7000 TC 35 997 9 174
1989010S15063 1989 5 SI MM DONA 1989-01-12 09:00:00 TS -20.6827 60.8929 main 325 325 _____P____P_P_ -1 -20.7152 61.0361 2 28 997 -20.6177 60.6066 1 30 -20.7152 61.0361 TC 35 997 10 161
1989010S15063 1989 5 SI MM DONA 1989-01-12 12:00:00 TS -21.1391 61.0419 28 997 reunion main 344 339 _____O____P_O_ -1 -21.2000 61.3000 2 28 997 2.50000 2.50000 -21.0174 60.5256 1 30 -21.2000 61.3000 TC 35 997 9 187
1989010S15063 1989 5 SI MM DONA 1989-01-12 15:00:00 TS -21.5298 60.7714 main 339 324 _____P____P_P_ -1 -21.6030 60.9162 2 28 997 -21.3833 60.4817 1 30 -21.6030 60.9162 TC 35 997 9 216
1989010S15063 1989 5 SI MM DONA 1989-01-12 18:00:00 TS -21.8333 60.5000 28 997 reunion main 324 324 _____O____O_O_ -1 -21.9000 60.5000 2 28 997 2.50000 2.50000 -21.7000 60.5000 1 30 -21.9000 60.5000 TC 35 997 5 201
1989010S15063 1989 5 SI MM DONA 1989-01-12 21:00:00 TS -22.0112 60.5738 main 344 344 _____P____P_P_ -1 -22.0650 60.6172 2 26 998 -21.9036 60.4870 1 28 -22.0650 60.6172 TC 32 998 4 141
1989010S15063 1989 5 SI MM DONA 1989-01-13 00:00:00 TS -22.1554 60.7849 24 1000 reunion main 373 373 _____O____P_O_ -1 -22.2000 60.9000 2 24 1000 2.00000 2.00000 -22.0663 60.5547 1 27 -22.2000 60.9000 TC 30 1000 5 138
1989010S15063 1989 5 SI MM DONA 1989-01-13 03:00:00 TS -22.3769 60.9367 main 393 393 _____P____P_P_ -1 -22.4423 61.0202 2 24 1000 -22.2460 60.7699 1 26 -22.4423 61.0202 TC 30 1000 6 141
1989010S15063 1989 5 SI MM DONA 1989-01-13 06:00:00 TS -22.6333 61.2000 24 1000 reunion main 431 431 _____O____O_O_ -1 -22.7000 61.2000 2 24 1000 2.00000 2.00000 -22.5000 61.2000 1 25 -22.7000 61.2000 TC 30 1000 8 129
1989010S15063 1989 5 SI MM DONA 1989-01-13 09:00:00 TS -22.9015 61.6421 main 483 483 _____P____P_P_ -1 -22.8844 61.4957 2 24 1000 -22.9357 61.9348 1 25 -22.8844 61.4957 TC 30 1000 12 120
1989010S15063 1989 5 SI MM DONA 1989-01-13 12:00:00 TS -23.2132 62.2945 24 1000 reunion main 562 562 _____O____P_O_ -1 -23.1000 62.0000 2 24 1000 2.00000 2.00000 -23.4396 62.8835 1 25 -23.1000 62.0000 TC 30 1000 15 117
1989010S15063 1989 5 SI MM DONA 1989-01-13 15:00:00 TS -23.5908 63.1391 main 655 655 _____P____P_P_ -1 -23.4121 62.7380 2 24 1000 -23.9481 63.9413 1 25 -23.4121 62.7380 TC 30 1000 19 115
1989010S15063 1989 5 SI MM DONA 1989-01-13 18:00:00 MX -24.0000 64.1333 24 1000 reunion main 765 765 _____O____O_O_ -1 -23.8000 63.7000 5 24 1000 2.00000 2.00000 -24.4000 65.0000 1 25 -23.8000 63.7000 TC 30 1000 20 113
1989010S15063 1989 5 SI MM DONA 1989-01-13 21:00:00 MX -24.3852 65.1625 main 885 885 _____P____P_P_ -1 -24.2495 64.7824 5 24 1000 -24.6564 65.9226 1 25 -24.2495 64.7824 TC 30 1000 21 111
1989010S15063 1989 5 SI MM DONA 1989-01-14 00:00:00 MX -24.7536 66.2727 24 1000 reunion main 1004 1004 _____O____P_O_ -1 -24.7000 66.0000 5 24 1000 2.00000 2.00000 -24.8609 66.8181 1 25 -24.7000 66.0000 TC 30 1000 22 107
1989010S15063 1989 5 SI MM DONA 1989-01-14 03:00:00 MX -25.0425 67.4671 main 1122 1122 _____P____P_P_ -1 -25.0213 67.3612 5 24 1000 -25.0849 67.6790 1 25 -25.0213 67.3612 TC 30 1000 22 107
1989010S15063 1989 5 SI MM DONA 1989-01-14 06:00:00 MX -25.4000 68.5667 24 1000 reunion main 1242 1242 _____O____O_O_ -1 -25.4000 68.6000 5 24 1000 2.00000 2.00000 -25.4000 68.5000 1 25 -25.4000 68.6000 TC 30 1000 20 118
1989010S15063 1989 5 SI MM DONA 1989-01-14 09:00:00 MX -25.9576 69.4039 main 1342 1342 _____P____P_P_ -1 -26.0030 69.4333 5 -25.8667 69.3451 1 25 -26.0030 69.4333 TC 27 19 131
1989010S15063 1989 5 SI MM DONA 1989-01-14 12:00:00 MX -26.6118 70.1159 reunion main 1434 1434 _____O____P_O_ -1 -26.7000 70.1000 6 9.90000 -26.4353 70.1476 1 25 -26.7000 70.1000 EX 25 19 135
1989010S15063 1989 5 SI MM DONA 1989-01-14 15:00:00 MX -27.2570 70.8792 main 1539 1539 _____P____P_P_ -1 -27.3425 70.8804 6 -27.0861 70.8766 1 25 -27.3425 70.8804 EX 25 19 136
1989010S15063 1989 5 SI MM DONA 1989-01-14 18:00:00 MX -27.9333 71.5667 reunion main 1631 1631 _____O____O_O_ -1 -28.0000 71.6000 6 9.90000 -27.8000 71.5000 1 25 -28.0000 71.6000 EX 25 18 141
1989010S15063 1989 5 SI MM DONA 1989-01-14 21:00:00 MX -28.6382 72.1585 main 1720 1720 _____P____P_P_ -1 -28.6774 72.2400 6 -28.5599 71.9956 1 23 -28.6774 72.2400 EX 25 17 148
1989010S15063 1989 5 SI MM DONA 1989-01-15 00:00:00 MX -29.3847 72.5956 reunion main 1797 1797 _____O____P_O_ -1 -29.4000 72.7000 6 9.90000 -29.3540 72.3869 1 22 -29.4000 72.7000 EX 25 17 159
1989010S15063 1989 5 SI MM DONA 1989-01-15 03:00:00 MX -30.1787 72.8501 main 1868 1868 _____P____P_P_ -1 -30.1824 72.9204 6 -30.1714 72.7096 1 21 -30.1824 72.9204 EX 25 17 168
1989010S15063 1989 5 SI MM DONA 1989-01-15 06:00:00 MX -31.0000 73.0000 reunion main 1925 _____O____O_O_ -1 -31.0000 73.0000 6 9.90000 -31.0000 73.0000 1 20 -31.0000 73.0000 EX 25 17 171

About IBTrACS Database

This database is a web-friendly format of International Best Track Archive for Climate Stewardship (IBTrACS), a global best track data archive curated by NOAA dating back to 1842.

Updated: 2021-12-03